createdAt,value
2023-04-24T00:00:17.131Z,10.21
2023-04-24T00:02:48.981Z,10.21
2023-04-24T00:05:17.979Z,10.21
2023-04-24T00:07:47.328Z,10.22
2023-04-24T00:10:15.346Z,10.22
2023-04-24T00:12:43.632Z,10.23
2023-04-24T00:15:12.084Z,10.23
2023-04-24T00:17:40.005Z,10.22
2023-04-24T00:20:09.198Z,10.22
2023-04-24T00:22:37.176Z,10.22
2023-04-24T00:25:05.614Z,10.19
2023-04-24T00:27:33.573Z,10.19
2023-04-24T00:30:01.433Z,10.19
2023-04-24T00:32:29.397Z,10.18
2023-04-24T00:34:57.408Z,10.16
2023-04-24T00:37:25.293Z,10.16
2023-04-24T00:39:53.291Z,10.13
2023-04-24T00:42:21.113Z,10.12
2023-04-24T00:44:49.696Z,10.13
2023-04-24T00:47:17.573Z,10.14
2023-04-24T00:49:45.658Z,10.14
2023-04-24T00:52:14.860Z,10.14
2023-04-24T00:54:42.809Z,10.15
2023-04-24T00:57:10.759Z,10.16
2023-04-24T00:59:39.371Z,10.14
2023-04-24T01:02:08.038Z,10.15
2023-04-24T01:04:36.242Z,10.13
2023-04-24T01:07:04.545Z,10.12
2023-04-24T01:09:32.563Z,10.10
2023-04-24T01:12:00.484Z,10.08
2023-04-24T01:14:28.465Z,10.08
2023-04-24T01:16:56.357Z,10.07
2023-04-24T01:19:24.227Z,10.06
2023-04-24T01:21:55.719Z,10.04
2023-04-24T01:24:23.656Z,10.01
2023-04-24T01:26:51.868Z,10.02
2023-04-24T01:29:19.805Z,10.01
2023-04-24T01:31:47.881Z,10.00
2023-04-24T01:34:16.840Z,9.97
2023-04-24T01:36:48.017Z,9.97
2023-04-24T01:39:16.181Z,9.98
2023-04-24T01:41:44.059Z,9.96
2023-04-24T01:44:12.321Z,9.92
2023-04-24T01:46:40.712Z,9.91
2023-04-24T01:49:08.938Z,9.89
2023-04-24T01:51:36.898Z,9.86
2023-04-24T01:54:05.222Z,9.84
2023-04-24T01:56:36.009Z,9.83
2023-04-24T01:59:06.050Z,9.80
2023-04-24T02:01:41.154Z,9.79
2023-04-24T02:04:10.249Z,9.77
2023-04-24T02:06:38.324Z,9.77
2023-04-24T02:09:06.363Z,9.76
2023-04-24T02:11:34.268Z,9.73
2023-04-24T02:14:02.115Z,9.74
2023-04-24T02:16:34.538Z,9.72
2023-04-24T02:19:02.454Z,9.69
2023-04-24T02:21:30.376Z,9.70
2023-04-24T02:23:58.298Z,9.70
2023-04-24T02:26:26.306Z,9.71
2023-04-24T02:28:54.281Z,9.72
2023-04-24T02:31:22.362Z,9.73
2023-04-24T02:33:50.656Z,9.72
2023-04-24T02:36:18.584Z,9.73
2023-04-24T02:38:46.555Z,9.71
2023-04-24T02:41:14.457Z,9.69
2023-04-24T02:43:42.511Z,9.68
2023-04-24T02:46:10.541Z,9.66
2023-04-24T02:48:38.465Z,9.67
2023-04-24T02:51:06.551Z,9.67
2023-04-24T02:53:34.687Z,9.64
2023-04-24T02:56:02.587Z,9.64
2023-04-24T02:58:30.439Z,9.67
2023-04-24T03:00:58.551Z,9.68
2023-04-24T03:03:26.899Z,9.67
2023-04-24T03:05:55.059Z,9.64
2023-04-24T03:08:23.087Z,9.63
2023-04-24T03:10:51.736Z,9.64
2023-04-24T03:13:19.656Z,9.64
2023-04-24T03:15:48.783Z,9.62
2023-04-24T03:18:16.864Z,9.60
2023-04-24T03:20:45.060Z,9.57
2023-04-24T03:23:12.929Z,9.56
2023-04-24T03:25:41.215Z,9.54
2023-04-24T03:28:09.074Z,9.54
2023-04-24T03:30:37.129Z,9.52
2023-04-24T03:33:05.210Z,9.51
2023-04-24T03:35:33.118Z,9.49
2023-04-24T03:38:00.983Z,9.44
2023-04-24T03:40:29.523Z,9.41
2023-04-24T03:42:57.356Z,9.40
2023-04-24T03:45:25.165Z,9.38
2023-04-24T03:47:53.111Z,9.40
2023-04-24T03:50:21.044Z,9.38
2023-04-24T03:52:48.917Z,9.38
2023-04-24T03:55:17.039Z,9.37
2023-04-24T03:57:44.985Z,9.37
2023-04-24T04:00:13.736Z,9.37
2023-04-24T04:02:41.805Z,9.38
2023-04-24T04:05:10.583Z,9.40
2023-04-24T04:07:38.525Z,9.38
2023-04-24T04:10:06.954Z,9.40
2023-04-24T04:12:34.954Z,9.39
2023-04-24T04:15:02.887Z,9.41
2023-04-24T04:17:30.774Z,9.42
2023-04-24T04:19:58.719Z,9.43
2023-04-24T04:22:26.788Z,9.42
2023-04-24T04:24:54.786Z,9.43
2023-04-24T04:27:23.689Z,9.42
2023-04-24T04:29:51.536Z,9.44
2023-04-24T04:32:19.470Z,9.46
2023-04-24T04:34:47.747Z,9.48
2023-04-24T04:37:16.666Z,9.48
2023-04-24T04:39:44.835Z,9.51
2023-04-24T04:42:12.885Z,9.51
2023-04-24T04:44:41.013Z,9.53
2023-04-24T04:47:09.968Z,9.56
2023-04-24T04:49:38.314Z,9.56
2023-04-24T04:52:06.274Z,9.60
2023-04-24T04:54:34.279Z,9.61
2023-04-24T04:57:04.302Z,9.63
2023-04-24T04:59:32.361Z,9.66
2023-04-24T05:02:00.312Z,9.68
2023-04-24T05:04:28.885Z,9.70
2023-04-24T05:06:57.114Z,9.73
2023-04-24T05:09:25.190Z,9.74
2023-04-24T05:11:53.115Z,9.71
2023-04-24T05:14:21.508Z,9.68
2023-04-24T05:16:49.528Z,9.66
2023-04-24T05:19:17.606Z,9.64
2023-04-24T05:21:45.588Z,9.61
2023-04-24T05:24:13.534Z,9.60
2023-04-24T05:26:41.420Z,9.57
2023-04-24T05:29:09.264Z,9.55
2023-04-24T05:31:37.289Z,9.50
2023-04-24T05:34:05.252Z,9.48
2023-04-24T05:36:33.399Z,9.43
2023-04-24T05:39:01.429Z,9.39
2023-04-24T05:41:29.417Z,9.34
2023-04-24T05:43:57.407Z,9.28
2023-04-24T05:46:25.360Z,9.26
2023-04-24T05:48:53.363Z,9.24
2023-04-24T05:51:21.256Z,9.20
2023-04-24T05:53:49.141Z,9.20
2023-04-24T05:56:18.363Z,9.22
2023-04-24T05:58:46.523Z,9.25
2023-04-24T06:01:16.573Z,9.28
2023-04-24T06:03:44.586Z,9.30
2023-04-24T06:06:12.662Z,9.31
2023-04-24T06:08:40.593Z,9.34
2023-04-24T06:11:08.518Z,9.37
2023-04-24T06:13:36.474Z,9.37
2023-04-24T06:16:04.538Z,9.39
2023-04-24T06:18:32.924Z,9.40
2023-04-24T06:21:00.882Z,9.46
2023-04-24T06:23:28.980Z,9.53
2023-04-24T06:25:56.949Z,9.53
2023-04-24T06:28:24.864Z,9.56
2023-04-24T06:30:52.760Z,9.62
2023-04-24T06:33:22.269Z,9.66
2023-04-24T06:35:51.681Z,9.73
2023-04-24T06:38:19.624Z,9.73
2023-04-24T06:40:47.645Z,9.72
2023-04-24T06:43:17.101Z,9.74
2023-04-24T06:45:46.305Z,9.80
2023-04-24T06:48:14.592Z,9.89
2023-04-24T06:50:42.565Z,9.98
2023-04-24T06:53:11.914Z,10.06
2023-04-24T06:55:39.763Z,10.07
2023-04-24T06:58:08.513Z,10.18
2023-04-24T07:00:36.445Z,10.40
2023-04-24T07:03:05.134Z,10.51
2023-04-24T07:05:33.666Z,10.74
2023-04-24T07:08:01.638Z,10.73
2023-04-24T07:10:30.934Z,10.69
2023-04-24T07:12:59.121Z,10.69
2023-04-24T07:15:27.200Z,10.70
2023-04-24T07:17:55.102Z,10.71
2023-04-24T07:20:23.080Z,10.75
2023-04-24T07:22:51.482Z,10.83
2023-04-24T07:25:19.583Z,10.87
2023-04-24T07:27:47.673Z,10.88
2023-04-24T07:30:15.801Z,10.90
2023-04-24T07:32:43.783Z,10.95
2023-04-24T07:35:12.198Z,11.05
2023-04-24T07:37:40.214Z,11.11
2023-04-24T07:40:08.816Z,11.19
2023-04-24T07:42:36.952Z,11.30
2023-04-24T07:45:05.317Z,11.38
2023-04-24T07:47:34.210Z,11.39
2023-04-24T07:50:02.274Z,11.46
2023-04-24T07:52:30.139Z,11.49
2023-04-24T07:55:00.722Z,11.52
2023-04-24T07:57:28.606Z,11.54
2023-04-24T07:59:57.161Z,11.63
2023-04-24T08:02:28.661Z,11.69
2023-04-24T08:04:57.700Z,11.73
2023-04-24T08:07:26.932Z,11.70
2023-04-24T08:09:54.794Z,11.64
2023-04-24T08:12:22.831Z,11.56
2023-04-24T08:14:50.819Z,11.51
2023-04-24T08:17:19.555Z,11.44
2023-04-24T08:19:50.547Z,11.30
2023-04-24T08:22:18.416Z,11.30
2023-04-24T08:24:46.273Z,11.28
2023-04-24T08:27:14.369Z,11.24
2023-04-24T08:29:42.498Z,11.11
2023-04-24T08:32:10.619Z,10.99
2023-04-24T08:34:38.657Z,10.93
2023-04-24T08:37:06.634Z,10.85
2023-04-24T08:39:34.790Z,10.83
2023-04-24T08:42:07.703Z,10.80
2023-04-24T08:44:36.863Z,10.70
2023-04-24T08:47:05.511Z,10.68
2023-04-24T08:49:35.095Z,10.68
2023-04-24T08:52:04.519Z,10.70
2023-04-24T08:54:34.286Z,10.76
2023-04-24T08:57:03.945Z,10.79
2023-04-24T08:59:33.621Z,10.80
2023-04-24T09:02:02.432Z,10.83
2023-04-24T09:04:31.674Z,10.94
2023-04-24T09:07:00.654Z,10.96
2023-04-24T09:09:29.408Z,10.99
2023-04-24T09:11:58.190Z,11.07
2023-04-24T09:14:26.378Z,11.04
2023-04-24T09:16:54.383Z,11.02
2023-04-24T09:19:24.074Z,11.06
2023-04-24T09:21:54.981Z,11.03
2023-04-24T09:24:27.363Z,11.11
2023-04-24T09:27:01.013Z,11.17
2023-04-24T09:29:29.251Z,11.27
2023-04-24T09:31:57.313Z,11.37
2023-04-24T09:34:27.406Z,11.43
2023-04-24T09:36:55.980Z,11.46
2023-04-24T09:39:23.868Z,11.56
2023-04-24T09:41:53.783Z,11.70
2023-04-24T09:44:26.576Z,11.80
2023-04-24T09:46:57.263Z,11.81
2023-04-24T09:49:26.641Z,11.82
2023-04-24T09:52:04.494Z,11.75
2023-04-24T09:54:32.973Z,11.71
2023-04-24T09:57:02.465Z,11.70
2023-04-24T09:59:30.901Z,11.63
2023-04-24T10:02:00.909Z,11.61
2023-04-24T10:04:30.189Z,11.57
2023-04-24T10:06:59.615Z,11.56
2023-04-24T10:09:29.370Z,11.60
2023-04-24T10:11:57.556Z,11.61
2023-04-24T10:14:27.861Z,11.57
2023-04-24T10:16:57.331Z,11.55
2023-04-24T10:19:28.485Z,11.53
2023-04-24T10:21:58.413Z,11.61
2023-04-24T10:24:26.423Z,11.77
2023-04-24T10:26:55.205Z,11.91
2023-04-24T10:29:24.736Z,11.95
2023-04-24T10:31:52.905Z,12.05
2023-04-24T10:34:23.853Z,12.13
2023-04-24T10:36:57.795Z,12.14
2023-04-24T10:39:27.785Z,12.19
2023-04-24T10:42:00.879Z,12.13
2023-04-24T10:44:38.630Z,12.06
2023-04-24T10:47:06.602Z,12.01
2023-04-24T10:49:34.851Z,11.94
2023-04-24T10:52:04.824Z,11.93
2023-04-24T10:54:36.922Z,12.01
2023-04-24T10:57:20.371Z,12.05
2023-04-24T10:59:49.709Z,12.04
2023-04-24T11:02:18.332Z,11.99
2023-04-24T11:04:47.686Z,12.07
2023-04-24T11:07:16.017Z,12.14
2023-04-24T11:09:45.276Z,12.20
2023-04-24T11:12:16.343Z,12.36
2023-04-24T11:15:00.406Z,12.38
2023-04-24T11:17:32.544Z,12.34
2023-04-24T11:20:25.873Z,12.32
2023-04-24T11:22:57.144Z,12.20
2023-04-24T11:25:25.667Z,12.22
2023-04-24T11:28:06.051Z,12.32
2023-04-24T11:30:35.875Z,12.45
2023-04-24T11:33:08.191Z,12.48
2023-04-24T11:35:43.040Z,12.45
2023-04-24T11:38:24.017Z,12.46
2023-04-24T11:40:53.848Z,12.34
2023-04-24T11:43:22.414Z,12.20
2023-04-24T11:45:51.204Z,12.19
2023-04-24T11:48:24.020Z,12.19
2023-04-24T11:50:52.955Z,12.18
2023-04-24T11:53:24.989Z,12.20
2023-04-24T11:55:53.016Z,12.18
2023-04-24T11:58:24.481Z,12.12
2023-04-24T12:01:00.045Z,12.19
2023-04-24T12:03:28.103Z,12.23
2023-04-24T12:06:08.700Z,12.23
2023-04-24T12:08:38.460Z,12.21
2023-04-24T12:11:11.848Z,12.20
2023-04-24T12:13:39.802Z,12.19
2023-04-24T12:16:08.020Z,12.18
2023-04-24T12:18:36.108Z,12.14
2023-04-24T12:21:28.885Z,12.22
2023-04-24T12:23:57.333Z,12.34
2023-04-24T12:26:25.592Z,12.42
2023-04-24T12:28:53.656Z,12.59
2023-04-24T12:31:23.249Z,12.69
2023-04-24T12:33:51.358Z,12.94
2023-04-24T12:36:19.274Z,13.17
2023-04-24T12:38:48.857Z,13.23
2023-04-24T12:41:17.106Z,13.33
2023-04-24T12:43:55.567Z,13.25
2023-04-24T12:46:23.715Z,13.21
2023-04-24T12:48:52.017Z,13.17
2023-04-24T12:51:19.916Z,13.08
2023-04-24T12:53:47.834Z,13.16
2023-04-24T12:56:15.777Z,13.10
2023-04-24T12:58:43.738Z,13.03
2023-04-24T13:01:11.708Z,13.08
2023-04-24T13:03:40.023Z,13.14
2023-04-24T13:06:08.286Z,13.26
2023-04-24T13:08:36.268Z,13.29
2023-04-24T13:11:04.154Z,13.43
2023-04-24T13:13:32.486Z,13.57
2023-04-24T13:16:00.425Z,13.65
2023-04-24T13:18:28.324Z,13.74
2023-04-24T13:20:56.285Z,13.65
2023-04-24T13:23:25.322Z,13.63
2023-04-24T13:25:53.273Z,13.58
2023-04-24T13:28:21.147Z,13.66
2023-04-24T13:30:50.264Z,13.73
2023-04-24T13:33:19.682Z,13.69
2023-04-24T13:35:47.506Z,13.75
2023-04-24T13:38:15.468Z,13.78
2023-04-24T13:40:43.408Z,13.81
2023-04-24T13:43:11.725Z,13.81
2023-04-24T13:45:40.214Z,13.80
2023-04-24T13:48:08.208Z,13.86
2023-04-24T13:50:36.140Z,13.81
2023-04-24T13:53:04.720Z,13.73
2023-04-24T13:55:33.319Z,13.75
2023-04-24T13:58:01.374Z,13.73
2023-04-24T14:00:29.836Z,13.70
2023-04-24T14:02:57.936Z,13.58
2023-04-24T14:05:26.017Z,13.56
2023-04-24T14:07:53.961Z,13.52
2023-04-24T14:10:21.917Z,13.60
2023-04-24T14:12:50.013Z,13.60
2023-04-24T14:15:18.006Z,13.71
2023-04-24T14:17:46.073Z,13.80
2023-04-24T14:20:14.897Z,13.88
2023-04-24T14:22:43.270Z,13.86
2023-04-24T14:25:11.945Z,13.88
2023-04-24T14:27:39.986Z,13.81
2023-04-24T14:30:09.083Z,13.74
2023-04-24T14:32:37.832Z,13.73
2023-04-24T14:35:06.356Z,13.73
2023-04-24T14:37:34.639Z,13.74
2023-04-24T14:42:34.514Z,13.74
2023-04-24T14:45:02.475Z,13.75
2023-04-24T14:47:31.598Z,13.76
2023-04-24T14:49:59.629Z,13.81
2023-04-24T14:52:27.788Z,13.85
2023-04-24T14:54:55.771Z,13.77
2023-04-24T14:57:23.872Z,13.60
2023-04-24T14:59:51.983Z,13.53
2023-04-24T15:02:22.244Z,13.41
2023-04-24T15:04:50.749Z,13.30
2023-04-24T15:07:18.892Z,13.18
2023-04-24T15:09:46.945Z,13.08
2023-04-24T15:12:15.106Z,13.11
2023-04-24T15:14:43.005Z,13.14
2023-04-24T15:17:11.100Z,13.05
2023-04-24T15:19:38.997Z,13.01
2023-04-24T15:22:07.096Z,13.01
2023-04-24T15:24:35.175Z,13.04
2023-04-24T15:27:03.915Z,12.98
2023-04-24T15:29:32.016Z,12.95
2023-04-24T15:32:00.264Z,12.98
2023-04-24T15:34:28.271Z,13.05
2023-04-24T15:36:56.530Z,13.20
2023-04-24T15:39:26.142Z,13.38
2023-04-24T15:41:55.470Z,13.45
2023-04-24T15:44:23.950Z,13.56
2023-04-24T15:46:53.509Z,13.62
2023-04-24T15:49:21.447Z,13.71
2023-04-24T15:51:49.341Z,13.67
2023-04-24T15:54:17.366Z,13.74
2023-04-24T15:56:46.722Z,13.76
2023-04-24T15:59:14.866Z,13.86
2023-04-24T16:01:42.952Z,13.88
2023-04-24T16:04:11.044Z,13.95
2023-04-24T16:06:39.197Z,14.03
2023-04-24T16:09:07.665Z,14.00
2023-04-24T16:11:37.835Z,13.98
2023-04-24T16:14:05.897Z,14.03
2023-04-24T16:16:34.066Z,14.00
2023-04-24T16:19:02.164Z,13.91
2023-04-24T16:21:30.077Z,13.81
2023-04-24T16:23:57.990Z,13.79
2023-04-24T16:26:25.963Z,13.76
2023-04-24T16:28:53.852Z,13.81
2023-04-24T16:31:21.995Z,13.74
2023-04-24T16:33:49.971Z,13.71
2023-04-24T16:36:17.968Z,13.66
2023-04-24T16:38:46.303Z,13.58
2023-04-24T16:41:14.384Z,13.58
2023-04-24T16:43:42.641Z,13.51
2023-04-24T16:46:10.690Z,13.50
2023-04-24T16:48:38.706Z,13.54
2023-04-24T16:51:07.727Z,13.56
2023-04-24T16:53:35.605Z,13.50
2023-04-24T16:56:04.403Z,13.39
2023-04-24T16:58:32.953Z,13.31
2023-04-24T17:01:00.938Z,13.20
2023-04-24T17:03:29.160Z,13.12
2023-04-24T17:05:57.584Z,13.04
2023-04-24T17:08:25.985Z,12.95
2023-04-24T17:10:53.951Z,12.82
2023-04-24T17:13:21.821Z,12.67
2023-04-24T17:15:49.687Z,12.58
2023-04-24T17:18:19.020Z,12.47
2023-04-24T17:20:46.973Z,12.42
2023-04-24T17:23:15.024Z,12.37
2023-04-24T17:25:43.170Z,12.39
2023-04-24T17:28:27.668Z,12.37
2023-04-24T17:30:59.208Z,12.41
2023-04-24T17:33:31.877Z,12.44
2023-04-24T17:36:02.588Z,12.41
2023-04-24T17:38:31.355Z,12.44
2023-04-24T17:40:59.835Z,12.42
2023-04-24T17:43:28.249Z,12.44
2023-04-24T17:46:02.871Z,12.37
2023-04-24T17:48:31.031Z,12.31
2023-04-24T17:50:58.930Z,12.25
2023-04-24T17:53:26.859Z,12.18
2023-04-24T17:55:55.614Z,12.12
2023-04-24T17:58:23.548Z,12.04
2023-04-24T18:00:51.429Z,11.96
2023-04-24T18:03:19.588Z,11.90
2023-04-24T18:05:47.738Z,11.84
2023-04-24T18:08:15.733Z,11.78
2023-04-24T18:10:44.949Z,11.71
2023-04-24T18:13:13.129Z,11.66
2023-04-24T18:15:44.533Z,11.57
2023-04-24T18:18:12.956Z,11.52
2023-04-24T18:20:40.960Z,11.47
2023-04-24T18:23:08.892Z,11.44
2023-04-24T18:25:36.817Z,11.41
2023-04-24T18:28:04.778Z,11.39
2023-04-24T18:30:33.821Z,11.30
2023-04-24T18:33:01.922Z,11.30
2023-04-24T18:35:29.881Z,11.26
2023-04-24T18:37:57.862Z,11.21
2023-04-24T18:40:25.758Z,11.15
2023-04-24T18:42:53.666Z,11.09
2023-04-24T18:45:21.641Z,11.04
2023-04-24T18:47:49.814Z,10.97
2023-04-24T18:50:17.889Z,10.91
2023-04-24T18:52:45.772Z,10.86
2023-04-24T18:55:13.648Z,10.79
2023-04-24T18:57:41.575Z,10.73
2023-04-24T19:00:10.224Z,10.66
2023-04-24T19:02:38.346Z,10.61
2023-04-24T19:05:06.851Z,10.57
2023-04-24T19:07:34.747Z,10.54
2023-04-24T19:10:02.649Z,10.53
2023-04-24T19:12:30.608Z,10.47
2023-04-24T19:14:59.299Z,10.47
2023-04-24T19:17:27.352Z,10.44
2023-04-24T19:19:55.332Z,10.43
2023-04-24T19:22:23.194Z,10.38
2023-04-24T19:24:51.215Z,10.37
2023-04-24T19:27:19.211Z,10.36
2023-04-24T19:29:47.379Z,10.31
2023-04-24T19:32:15.310Z,10.29
2023-04-24T19:34:43.405Z,10.25
2023-04-24T19:37:11.382Z,10.24
2023-04-24T19:39:39.516Z,10.21
2023-04-24T19:42:07.808Z,10.18
2023-04-24T19:44:35.849Z,10.16
2023-04-24T19:47:03.923Z,10.15
2023-04-24T19:49:32.067Z,10.14
2023-04-24T19:51:59.944Z,10.13
2023-04-24T19:54:28.438Z,10.13
2023-04-24T19:56:57.248Z,10.12
2023-04-24T19:59:25.203Z,10.13
2023-04-24T20:01:54.211Z,10.13
2023-04-24T20:04:24.612Z,10.15
2023-04-24T20:06:52.735Z,10.15
2023-04-24T20:09:20.681Z,10.17
2023-04-24T20:11:52.315Z,10.20
2023-04-24T20:14:20.515Z,10.20
2023-04-24T20:16:48.527Z,10.22
2023-04-24T20:19:16.812Z,10.21
2023-04-24T20:21:44.876Z,10.23
2023-04-24T20:24:12.932Z,10.24
2023-04-24T20:26:41.019Z,10.23
2023-04-24T20:29:10.204Z,10.21
2023-04-24T20:31:38.598Z,10.20
2023-04-24T20:34:07.586Z,10.15
2023-04-24T20:36:36.040Z,10.14
2023-04-24T20:39:08.152Z,10.15
2023-04-24T20:41:37.014Z,10.13
2023-04-24T20:44:05.555Z,10.12
2023-04-24T20:46:34.337Z,10.12
2023-04-24T20:49:02.587Z,10.12
2023-04-24T20:51:31.237Z,10.13
2023-04-24T20:53:59.301Z,10.15
2023-04-24T20:56:27.304Z,10.12
2023-04-24T20:58:56.948Z,10.11
2023-04-24T21:01:25.596Z,10.11
2023-04-24T21:03:54.348Z,10.09
2023-04-24T21:06:23.165Z,10.08
2023-04-24T21:08:52.040Z,10.08
2023-04-24T21:11:19.940Z,10.05
2023-04-24T21:13:48.001Z,10.04
2023-04-24T21:16:16.163Z,10.02
2023-04-24T21:18:44.178Z,9.98
2023-04-24T21:21:12.205Z,9.91
2023-04-24T21:23:40.468Z,9.90
2023-04-24T21:26:08.637Z,9.91
2023-04-24T21:28:37.808Z,9.88
2023-04-24T21:31:05.842Z,9.87
2023-04-24T21:33:34.183Z,9.85
2023-04-24T21:36:02.268Z,9.83
2023-04-24T21:38:30.588Z,9.82
2023-04-24T21:40:58.519Z,9.81
2023-04-24T21:43:37.154Z,9.83
2023-04-24T21:46:12.046Z,9.81
2023-04-24T21:48:40.077Z,9.82
2023-04-24T21:51:07.963Z,9.83
2023-04-24T21:53:35.952Z,9.82
2023-04-24T21:56:04.066Z,9.82
2023-04-24T21:58:32.118Z,9.83
2023-04-24T22:01:00.182Z,9.82
2023-04-24T22:03:28.226Z,9.82
2023-04-24T22:05:56.292Z,9.80
2023-04-24T22:08:24.243Z,9.76
2023-04-24T22:10:53.299Z,9.74
2023-04-24T22:13:21.464Z,9.72
2023-04-24T22:15:52.174Z,9.70
2023-04-24T22:18:20.348Z,9.69
2023-04-24T22:20:48.581Z,9.69
2023-04-24T22:23:16.631Z,9.68
2023-04-24T22:25:44.598Z,9.68
2023-04-24T22:28:12.750Z,9.69
2023-04-24T22:30:40.754Z,9.69
2023-04-24T22:33:09.078Z,9.68
2023-04-24T22:35:38.620Z,9.64
2023-04-24T22:38:06.646Z,9.68
2023-04-24T22:40:36.406Z,9.68
2023-04-24T22:43:05.093Z,9.68
2023-04-24T22:45:33.524Z,9.63
2023-04-24T22:48:01.771Z,9.67
2023-04-24T22:50:30.422Z,9.69
2023-04-24T22:52:58.279Z,9.68
2023-04-24T22:55:26.259Z,9.69
2023-04-24T22:57:54.181Z,9.69
2023-04-24T23:00:22.122Z,9.70
2023-04-24T23:02:50.017Z,9.70
2023-04-24T23:05:17.982Z,9.69
2023-04-24T23:07:45.857Z,9.70
2023-04-24T23:10:13.685Z,9.70
2023-04-24T23:12:41.602Z,9.69
2023-04-24T23:15:11.107Z,9.70
2023-04-24T23:17:39.439Z,9.69
2023-04-24T23:20:08.134Z,9.70
2023-04-24T23:22:36.032Z,9.69
2023-04-24T23:25:04.010Z,9.70
2023-04-24T23:27:31.994Z,9.70
2023-04-24T23:29:59.880Z,9.70
2023-04-24T23:32:27.757Z,9.69
2023-04-24T23:34:55.752Z,9.67
2023-04-24T23:37:24.030Z,9.67
2023-04-24T23:39:52.320Z,9.66
2023-04-24T23:42:20.234Z,9.64
2023-04-24T23:44:48.098Z,9.63
2023-04-24T23:47:16.032Z,9.62
2023-04-24T23:49:43.863Z,9.61
2023-04-24T23:52:11.792Z,9.61
2023-04-24T23:54:39.898Z,9.59
2023-04-24T23:57:07.777Z,9.59
2023-04-24T23:59:35.930Z,9.56
